KADS/ADS METAR and TAF weather

Enter ICAO airport designator
Station Type Date Time Source
KADS METAR 2020/06/03 20:51 UTC NOAA

KADS 032051Z 15008KT 10SM FEW060 33/16 A2991


Station Type Date Time Source
KADS Decoded METAR 2020/06/03 20:51 UTC NOAA

Dallas / Addison Airport, TX, United States (KADS) 32-58N 096-50W
Jun 03, 2020 - 04:51 PM EDT / 2020.06.03 2051 UTC
Wind: from the SSE (150 degrees) at 9 MPH (8 KT):0
Visibility: 10 mile(s):0
Sky conditions: mostly clear
Temperature: 91 F (33 C)
Dew Point: 60 F (16 C)
Relative Humidity: 36%
Pressure (altimeter): 29.91 in. Hg (1012 hPa)
ob: KADS 032051Z 15008KT 10SM FEW060 33/16 A2991
cycle: 21

Station Type Date Time Source
KADS TAF UTC NOAA

Error!

Example: see airport list